createdAt,value
2023-12-17T00:00:25.502Z,4.82
2023-12-17T00:03:16.716Z,5.25
2023-12-17T00:05:38.515Z,5.28
2023-12-17T00:08:05.182Z,5.00
2023-12-17T00:10:31.591Z,4.40
2023-12-17T00:12:57.989Z,4.60
2023-12-17T00:15:24.355Z,4.22
2023-12-17T00:17:50.857Z,4.63
2023-12-17T00:20:17.244Z,4.55
2023-12-17T00:22:44.463Z,4.50
2023-12-17T00:25:10.831Z,4.05
2023-12-17T00:27:37.395Z,4.80
2023-12-17T00:30:04.356Z,4.95
2023-12-17T00:32:30.810Z,4.55
2023-12-17T00:34:57.208Z,4.60
2023-12-17T00:37:23.581Z,3.97
2023-12-17T00:39:49.954Z,4.78
2023-12-17T00:42:16.321Z,5.80
2023-12-17T00:44:42.815Z,4.57
2023-12-17T00:47:09.283Z,4.40
2023-12-17T00:49:35.839Z,5.10
2023-12-17T00:52:02.323Z,5.00
2023-12-17T00:54:28.762Z,4.93
2023-12-17T00:56:55.239Z,4.88
2023-12-17T00:59:21.660Z,4.77
2023-12-17T01:01:48.134Z,5.10
2023-12-17T01:04:14.542Z,5.03
2023-12-17T01:06:41.035Z,4.95
2023-12-17T01:09:07.428Z,4.63
2023-12-17T01:11:33.835Z,4.60
2023-12-17T01:14:00.290Z,4.63
2023-12-17T01:16:26.654Z,5.15
2023-12-17T01:18:53.236Z,4.88
2023-12-17T01:21:19.669Z,6.00
2023-12-17T01:23:46.222Z,4.73
2023-12-17T01:26:20.987Z,5.35
2023-12-17T01:28:47.927Z,4.60
2023-12-17T01:31:14.807Z,4.85
2023-12-17T01:33:41.293Z,5.32
2023-12-17T01:36:08.233Z,4.70
2023-12-17T01:38:34.621Z,4.93
2023-12-17T01:41:01.050Z,5.88
2023-12-17T01:43:27.753Z,5.05
2023-12-17T01:45:55.434Z,5.45
2023-12-17T01:48:23.039Z,5.00
2023-12-17T01:50:50.152Z,5.00
2023-12-17T01:53:17.834Z,4.90
2023-12-17T01:55:46.464Z,5.22
2023-12-17T01:58:15.646Z,5.20
2023-12-17T02:00:43.584Z,4.70
2023-12-17T02:03:10.746Z,4.57
2023-12-17T02:05:37.684Z,4.88
2023-12-17T02:08:05.904Z,5.07
2023-12-17T02:10:32.510Z,4.90
2023-12-17T02:13:00.591Z,4.63
2023-12-17T02:15:26.956Z,4.68
2023-12-17T02:17:54.064Z,4.85
2023-12-17T02:20:20.701Z,4.50
2023-12-17T02:22:54.275Z,4.80
2023-12-17T02:25:20.720Z,5.17
2023-12-17T02:27:47.075Z,4.43
2023-12-17T02:30:13.922Z,4.57
2023-12-17T02:32:40.581Z,4.60
2023-12-17T02:35:07.372Z,4.65
2023-12-17T02:37:33.704Z,4.77
2023-12-17T02:40:00.120Z,4.53
2023-12-17T02:42:26.678Z,5.20
2023-12-17T02:44:53.017Z,4.32
2023-12-17T02:47:19.427Z,4.63
2023-12-17T02:49:47.021Z,4.63
2023-12-17T02:52:13.460Z,4.35
2023-12-17T02:54:41.065Z,4.53
2023-12-17T02:57:07.517Z,4.20
2023-12-17T02:59:33.840Z,4.43
2023-12-17T03:02:00.320Z,4.40
2023-12-17T03:04:26.761Z,3.50
2023-12-17T03:06:53.245Z,3.53
2023-12-17T03:09:19.631Z,3.20
2023-12-17T03:11:46.685Z,3.53
2023-12-17T03:14:13.038Z,3.30
2023-12-17T03:16:39.424Z,2.80
2023-12-17T03:19:06.082Z,2.95
2023-12-17T03:21:32.503Z,3.17
2023-12-17T03:23:58.975Z,2.88
2023-12-17T03:26:25.336Z,3.20
2023-12-17T03:28:51.811Z,2.85
2023-12-17T03:31:18.423Z,3.25
2023-12-17T03:33:46.483Z,3.20
2023-12-17T03:36:14.920Z,3.35
2023-12-17T03:38:43.013Z,3.10
2023-12-17T03:41:21.362Z,3.00
2023-12-17T03:43:50.325Z,3.10
2023-12-17T03:46:16.712Z,3.40
2023-12-17T03:48:43.270Z,2.92
2023-12-17T03:51:09.789Z,3.17
2023-12-17T03:53:37.166Z,3.05
2023-12-17T03:56:03.731Z,3.40
2023-12-17T03:58:30.131Z,2.80
2023-12-17T04:00:56.569Z,2.88
2023-12-17T04:03:23.055Z,2.50
2023-12-17T04:05:49.615Z,3.20
2023-12-17T04:08:16.100Z,2.97
2023-12-17T04:10:42.618Z,3.40
2023-12-17T04:13:09.003Z,3.45
2023-12-17T04:15:35.510Z,2.90
2023-12-17T04:18:02.050Z,2.58
2023-12-17T04:20:28.513Z,3.28
2023-12-17T04:22:54.822Z,3.80
2023-12-17T04:25:21.228Z,3.67
2023-12-17T04:27:47.598Z,3.93
2023-12-17T04:30:14.282Z,4.28
2023-12-17T04:32:40.864Z,3.88
2023-12-17T04:35:07.660Z,4.25
2023-12-17T04:37:34.168Z,4.97
2023-12-17T04:40:00.628Z,4.40
2023-12-17T04:42:27.060Z,4.63
2023-12-17T04:44:53.606Z,4.60
2023-12-17T04:47:20.077Z,3.67
2023-12-17T04:49:47.498Z,3.90
2023-12-17T04:52:13.872Z,3.17
2023-12-17T04:54:40.191Z,3.13
2023-12-17T04:57:06.796Z,3.28
2023-12-17T04:59:33.231Z,3.20
2023-12-17T05:01:59.658Z,3.08
2023-12-17T05:04:26.148Z,3.33
2023-12-17T05:06:52.688Z,2.75
2023-12-17T05:09:19.130Z,3.20
2023-12-17T05:11:45.632Z,2.90
2023-12-17T05:14:12.546Z,3.20
2023-12-17T05:16:39.891Z,2.90
2023-12-17T05:19:06.478Z,3.17
2023-12-17T05:21:33.003Z,3.63
2023-12-17T05:23:59.425Z,3.60
2023-12-17T05:26:25.816Z,4.05
2023-12-17T05:28:52.171Z,3.67
2023-12-17T05:31:18.548Z,3.45
2023-12-17T05:33:45.049Z,3.63
2023-12-17T05:36:11.438Z,3.97
2023-12-17T05:38:39.077Z,3.80
2023-12-17T05:41:06.129Z,2.40
2023-12-17T05:43:32.474Z,2.78
2023-12-17T05:45:59.419Z,3.60
2023-12-17T05:48:26.021Z,4.00
2023-12-17T05:50:52.590Z,4.32
2023-12-17T05:53:20.085Z,5.37
2023-12-17T05:55:49.301Z,5.57
2023-12-17T05:58:16.683Z,5.88
2023-12-17T06:00:43.091Z,6.47
2023-12-17T06:03:09.526Z,7.50
2023-12-17T06:05:35.925Z,6.23
2023-12-17T06:08:02.294Z,6.15
2023-12-17T06:10:28.769Z,6.38
2023-12-17T06:12:55.202Z,5.78
2023-12-17T06:15:21.575Z,6.10
2023-12-17T06:17:48.055Z,6.30
2023-12-17T06:20:14.569Z,6.50
2023-12-17T06:22:41.935Z,6.78
2023-12-17T06:25:08.434Z,7.20
2023-12-17T06:27:34.838Z,8.02
2023-12-17T06:30:01.279Z,7.80
2023-12-17T06:32:27.816Z,8.23
2023-12-17T06:34:54.324Z,8.23
2023-12-17T06:37:20.712Z,8.88
2023-12-17T06:39:47.218Z,8.80
2023-12-17T06:42:13.674Z,8.87
2023-12-17T06:44:40.146Z,8.23
2023-12-17T06:47:13.829Z,8.60
2023-12-17T06:49:45.276Z,8.23
2023-12-17T06:52:11.838Z,9.63
2023-12-17T06:54:38.236Z,10.03
2023-12-17T06:57:04.862Z,8.60
2023-12-17T06:59:31.240Z,9.20
2023-12-17T07:01:57.570Z,8.75
2023-12-17T07:04:24.858Z,9.88
2023-12-17T07:06:51.254Z,9.93
2023-12-17T07:09:17.728Z,9.75
2023-12-17T07:11:44.080Z,10.15
2023-12-17T07:14:10.449Z,9.68
2023-12-17T07:16:36.813Z,9.73
2023-12-17T07:19:04.737Z,11.80
2023-12-17T07:21:31.140Z,10.00
2023-12-17T07:23:57.675Z,10.30
2023-12-17T07:26:24.231Z,12.65
2023-12-17T07:28:50.698Z,10.88
2023-12-17T07:31:18.067Z,12.87
2023-12-17T07:33:44.984Z,11.82
2023-12-17T07:36:11.594Z,12.63
2023-12-17T07:38:38.005Z,14.38
2023-12-17T07:41:04.519Z,16.73
2023-12-17T07:43:30.863Z,13.93
2023-12-17T07:45:57.199Z,14.07
2023-12-17T07:48:23.730Z,15.57
2023-12-17T07:50:50.216Z,14.20
2023-12-17T07:53:16.608Z,13.82
2023-12-17T07:55:42.978Z,12.60
2023-12-17T07:58:09.371Z,13.63
2023-12-17T08:00:35.865Z,14.55
2023-12-17T08:03:02.353Z,12.15
2023-12-17T08:05:28.768Z,12.45
2023-12-17T08:07:55.141Z,12.07
2023-12-17T08:10:21.640Z,10.82
2023-12-17T08:12:48.075Z,13.18
2023-12-17T08:15:14.503Z,11.25
2023-12-17T08:17:41.337Z,10.90
2023-12-17T08:20:09.261Z,11.30
2023-12-17T08:22:35.696Z,10.73
2023-12-17T08:25:02.161Z,12.00
2023-12-17T08:27:28.653Z,10.52
2023-12-17T08:29:55.113Z,9.35
2023-12-17T08:32:21.512Z,9.53
2023-12-17T08:34:48.078Z,10.00
2023-12-17T08:37:14.540Z,8.85
2023-12-17T08:39:40.931Z,9.35
2023-12-17T08:42:07.359Z,10.40
2023-12-17T08:44:35.236Z,9.10
2023-12-17T08:47:01.622Z,8.88
2023-12-17T08:49:28.086Z,8.88
2023-12-17T08:51:54.600Z,10.00
2023-12-17T08:54:21.006Z,8.35
2023-12-17T08:56:47.534Z,8.33
2023-12-17T08:59:14.010Z,8.52
2023-12-17T09:01:40.380Z,9.65
2023-12-17T09:04:06.849Z,9.55
2023-12-17T09:06:42.629Z,10.90
2023-12-17T09:09:09.176Z,9.93
2023-12-17T09:11:35.679Z,10.95
2023-12-17T09:14:03.159Z,9.30
2023-12-17T09:16:29.725Z,9.52
2023-12-17T09:18:56.216Z,11.80
2023-12-17T09:21:23.175Z,8.53
2023-12-17T09:23:49.641Z,8.60
2023-12-17T09:26:16.492Z,8.63
2023-12-17T09:28:42.908Z,8.50
2023-12-17T09:31:10.656Z,8.63
2023-12-17T09:33:38.052Z,9.17
2023-12-17T09:36:06.137Z,9.07
2023-12-17T09:38:32.570Z,9.43
2023-12-17T09:40:59.004Z,9.90
2023-12-17T09:43:25.612Z,12.15
2023-12-17T09:45:53.167Z,11.77
2023-12-17T09:48:20.364Z,12.15
2023-12-17T09:50:46.852Z,14.27
2023-12-17T09:53:15.081Z,11.15
2023-12-17T09:55:41.505Z,12.10
2023-12-17T09:58:08.299Z,12.67
2023-12-17T10:00:34.834Z,12.32
2023-12-17T10:03:05.476Z,12.93
2023-12-17T10:05:33.219Z,13.48
2023-12-17T10:08:02.862Z,11.98
2023-12-17T10:10:29.278Z,11.13
2023-12-17T10:12:55.876Z,15.65
2023-12-17T10:15:22.382Z,12.55
2023-12-17T10:17:49.154Z,11.30
2023-12-17T10:20:19.767Z,11.90
2023-12-17T10:23:02.376Z,13.63
2023-12-17T10:25:30.137Z,13.50
2023-12-17T10:27:58.798Z,13.70
2023-12-17T10:30:30.921Z,11.77
2023-12-17T10:32:59.516Z,14.00
2023-12-17T10:35:26.828Z,19.13
2023-12-17T10:37:58.444Z,18.17
2023-12-17T10:40:25.943Z,18.10
2023-12-17T10:42:54.016Z,17.90
2023-12-17T10:45:21.860Z,19.05
2023-12-17T10:47:56.417Z,17.93
2023-12-17T10:50:24.336Z,17.63
2023-12-17T10:52:51.507Z,20.02
2023-12-17T10:55:18.967Z,20.33
2023-12-17T10:57:59.391Z,18.05
2023-12-17T11:00:29.015Z,17.80
2023-12-17T11:02:59.285Z,17.75
2023-12-17T11:05:25.834Z,23.27
2023-12-17T11:07:53.074Z,19.58
2023-12-17T11:10:19.777Z,15.75
2023-12-17T11:12:47.232Z,17.27
2023-12-17T11:15:14.515Z,17.63
2023-12-17T11:17:45.306Z,14.98
2023-12-17T11:20:13.216Z,17.02
2023-12-17T11:22:39.916Z,16.35
2023-12-17T11:25:12.139Z,15.43
2023-12-17T11:27:40.087Z,24.33
2023-12-17T11:30:30.582Z,17.27
2023-12-17T11:33:00.972Z,15.35
2023-12-17T11:35:28.679Z,18.65
2023-12-17T11:37:55.462Z,15.93
2023-12-17T11:40:22.426Z,16.10
2023-12-17T11:43:02.650Z,15.10
2023-12-17T11:45:43.716Z,19.92
2023-12-17T11:48:13.828Z,14.32
2023-12-17T11:50:47.692Z,17.87
2023-12-17T11:53:15.899Z,15.27
2023-12-17T11:55:47.280Z,13.52
2023-12-17T11:58:15.508Z,14.35
2023-12-17T12:00:41.896Z,14.15
2023-12-17T12:03:08.394Z,12.90
2023-12-17T12:05:34.990Z,11.23
2023-12-17T12:08:01.453Z,14.60
2023-12-17T12:10:28.920Z,12.70
2023-12-17T12:13:05.268Z,12.13
2023-12-17T12:15:31.792Z,11.97
2023-12-17T12:18:06.060Z,11.32
2023-12-17T12:20:36.764Z,10.82
2023-12-17T12:23:10.111Z,12.02
2023-12-17T12:25:38.201Z,10.73
2023-12-17T12:28:04.670Z,11.35
2023-12-17T12:30:31.490Z,11.55
2023-12-17T12:33:17.601Z,11.15
2023-12-17T12:35:45.665Z,10.00
2023-12-17T12:38:25.984Z,9.68
2023-12-17T12:40:56.073Z,10.95
2023-12-17T12:43:24.317Z,9.82
2023-12-17T12:45:54.521Z,10.43
2023-12-17T12:48:24.063Z,9.48
2023-12-17T12:50:52.401Z,9.15
2023-12-17T12:53:25.502Z,7.25
2023-12-17T12:55:53.445Z,8.27
2023-12-17T12:58:19.868Z,7.93
2023-12-17T13:00:48.423Z,7.50
2023-12-17T13:03:16.061Z,7.40
2023-12-17T13:05:42.923Z,6.55
2023-12-17T13:08:09.404Z,6.95
2023-12-17T13:10:35.962Z,6.43
2023-12-17T13:13:02.743Z,6.10
2023-12-17T13:15:31.355Z,5.38
2023-12-17T13:17:58.710Z,5.40
2023-12-17T13:20:25.438Z,5.57
2023-12-17T13:22:51.995Z,5.63
2023-12-17T13:25:18.531Z,5.28
2023-12-17T13:27:46.572Z,5.30
2023-12-17T13:30:13.583Z,4.57
2023-12-17T13:32:40.219Z,5.05
2023-12-17T13:35:07.902Z,5.32
2023-12-17T13:37:34.288Z,6.07
2023-12-17T13:40:00.654Z,5.00
2023-12-17T13:42:27.096Z,4.90
2023-12-17T13:44:53.450Z,4.80
2023-12-17T13:47:19.841Z,4.95
2023-12-17T13:49:46.535Z,4.70
2023-12-17T13:52:13.070Z,5.57
2023-12-17T13:54:40.113Z,4.90
2023-12-17T13:57:07.277Z,4.47
2023-12-17T13:59:33.945Z,5.03
2023-12-17T14:02:00.369Z,4.97
2023-12-17T14:04:28.426Z,5.38
2023-12-17T14:06:55.210Z,4.18
2023-12-17T14:09:21.618Z,4.68
2023-12-17T14:11:48.100Z,4.97
2023-12-17T14:14:14.480Z,4.93
2023-12-17T14:16:40.830Z,4.15
2023-12-17T14:19:07.350Z,3.75
2023-12-17T14:21:34.262Z,4.00
2023-12-17T14:24:00.614Z,4.07
2023-12-17T14:26:28.276Z,3.90
2023-12-17T14:28:54.721Z,3.83
2023-12-17T14:31:28.187Z,4.20
2023-12-17T14:33:54.637Z,4.28
2023-12-17T14:36:21.957Z,4.03
2023-12-17T14:38:48.368Z,4.05
2023-12-17T14:41:14.706Z,4.50
2023-12-17T14:43:41.113Z,4.45
2023-12-17T14:46:07.564Z,4.78
2023-12-17T14:48:34.346Z,5.43
2023-12-17T14:51:00.902Z,5.32
2023-12-17T14:53:27.345Z,4.95
2023-12-17T14:55:53.702Z,4.20
2023-12-17T14:58:20.183Z,4.70
2023-12-17T15:00:47.443Z,4.40
2023-12-17T15:03:14.545Z,4.10
2023-12-17T15:05:41.713Z,5.28
2023-12-17T15:08:08.174Z,4.97
2023-12-17T15:10:34.892Z,5.25
2023-12-17T15:13:01.335Z,4.47
2023-12-17T15:15:27.761Z,5.30
2023-12-17T15:17:55.527Z,4.30
2023-12-17T15:20:22.098Z,5.80
2023-12-17T15:22:48.433Z,4.57
2023-12-17T15:25:14.918Z,5.25
2023-12-17T15:27:42.347Z,5.80
2023-12-17T15:30:09.433Z,4.40
2023-12-17T15:32:35.852Z,4.30
2023-12-17T15:35:02.237Z,4.90
2023-12-17T15:37:28.656Z,4.72
2023-12-17T15:39:55.024Z,4.57
2023-12-17T15:42:22.424Z,5.20
2023-12-17T15:44:49.006Z,5.57
2023-12-17T15:47:15.615Z,5.07
2023-12-17T15:49:42.030Z,4.95
2023-12-17T15:52:08.405Z,5.25
2023-12-17T15:54:34.819Z,5.28
2023-12-17T15:57:01.216Z,5.80
2023-12-17T15:59:27.911Z,5.05
2023-12-17T16:01:54.810Z,5.97
2023-12-17T16:04:21.234Z,6.40
2023-12-17T16:06:47.741Z,5.22
2023-12-17T16:09:14.311Z,5.85
2023-12-17T16:11:40.776Z,5.47
2023-12-17T16:14:07.250Z,6.28
2023-12-17T16:16:33.589Z,6.43
2023-12-17T16:19:00.644Z,5.63
2023-12-17T16:21:27.193Z,6.53
2023-12-17T16:23:54.621Z,5.90
2023-12-17T16:26:21.014Z,6.70
2023-12-17T16:28:47.766Z,5.68
2023-12-17T16:31:14.324Z,6.53
2023-12-17T16:33:42.028Z,5.80
2023-12-17T16:36:08.573Z,5.68
2023-12-17T16:38:35.005Z,6.20
2023-12-17T16:41:01.373Z,6.40
2023-12-17T16:43:27.675Z,6.10
2023-12-17T16:45:53.973Z,6.22
2023-12-17T16:48:20.509Z,6.43
2023-12-17T16:50:47.989Z,6.30
2023-12-17T16:53:14.421Z,7.20
2023-12-17T16:55:40.805Z,6.93
2023-12-17T16:58:07.564Z,6.45
2023-12-17T17:00:35.879Z,5.97
2023-12-17T17:03:02.638Z,6.30
2023-12-17T17:05:30.050Z,6.03
2023-12-17T17:07:56.449Z,6.65
2023-12-17T17:10:23.017Z,6.75
2023-12-17T17:12:49.866Z,6.68
2023-12-17T17:15:16.356Z,6.18
2023-12-17T17:17:42.855Z,6.07
2023-12-17T17:20:10.733Z,6.28
2023-12-17T17:22:38.193Z,6.68
2023-12-17T17:25:06.240Z,6.72
2023-12-17T17:27:32.587Z,6.47
2023-12-17T17:29:59.039Z,6.40
2023-12-17T17:32:25.751Z,6.38
2023-12-17T17:34:53.348Z,6.50
2023-12-17T17:37:19.755Z,6.15
2023-12-17T17:39:46.244Z,5.93
2023-12-17T17:42:12.686Z,6.55
2023-12-17T17:44:39.465Z,5.97
2023-12-17T17:47:06.109Z,5.78
2023-12-17T17:49:32.614Z,6.63
2023-12-17T17:51:59.014Z,7.20
2023-12-17T17:54:25.439Z,7.43
2023-12-17T17:56:51.957Z,6.80
2023-12-17T17:59:18.364Z,7.45
2023-12-17T18:01:44.848Z,7.40
2023-12-17T18:04:12.829Z,6.45
2023-12-17T18:06:39.262Z,6.60
2023-12-17T18:09:05.767Z,6.78
2023-12-17T18:11:32.236Z,7.45
2023-12-17T18:13:58.717Z,6.60
2023-12-17T18:16:25.129Z,7.82
2023-12-17T18:18:52.105Z,8.40
2023-12-17T18:21:19.874Z,8.02
2023-12-17T18:23:47.813Z,7.45
2023-12-17T18:26:24.048Z,7.88
2023-12-17T18:28:50.948Z,6.93
2023-12-17T18:31:17.490Z,7.22
2023-12-17T18:33:44.188Z,8.18
2023-12-17T18:36:10.896Z,7.75
2023-12-17T18:38:37.336Z,7.00
2023-12-17T18:41:03.946Z,8.10
2023-12-17T18:43:30.303Z,7.13
2023-12-17T18:45:56.675Z,7.97
2023-12-17T18:48:23.149Z,7.32
2023-12-17T18:50:49.603Z,9.90
2023-12-17T18:53:16.080Z,7.68
2023-12-17T18:55:42.442Z,7.82
2023-12-17T18:58:08.819Z,7.70
2023-12-17T19:00:35.258Z,8.52
2023-12-17T19:03:01.837Z,8.88
2023-12-17T19:05:28.193Z,7.43
2023-12-17T19:07:54.552Z,9.27
2023-12-17T19:10:20.918Z,11.13
2023-12-17T19:12:47.362Z,9.05
2023-12-17T19:15:13.788Z,11.07
2023-12-17T19:17:40.281Z,9.18
2023-12-17T19:20:07.227Z,9.70
2023-12-17T19:22:33.772Z,9.30
2023-12-17T19:25:00.142Z,9.13
2023-12-17T19:27:26.786Z,9.10
2023-12-17T19:29:53.289Z,9.02
2023-12-17T19:32:19.668Z,9.23
2023-12-17T19:34:46.042Z,10.50
2023-12-17T19:37:12.572Z,8.52
2023-12-17T19:39:39.056Z,9.23
2023-12-17T19:42:09.570Z,9.38
2023-12-17T19:44:35.938Z,9.32
2023-12-17T19:47:02.456Z,9.13
2023-12-17T19:49:29.268Z,10.20
2023-12-17T19:51:55.727Z,9.52
2023-12-17T19:54:22.110Z,9.52
2023-12-17T19:56:48.805Z,10.75
2023-12-17T19:59:15.141Z,9.93
2023-12-17T20:01:41.514Z,9.55
2023-12-17T20:04:07.933Z,10.70
2023-12-17T20:06:34.441Z,9.85
2023-12-17T20:09:00.823Z,7.93
2023-12-17T20:11:27.361Z,9.27
2023-12-17T20:13:54.155Z,9.18
2023-12-17T20:16:20.597Z,9.68
2023-12-17T20:18:47.103Z,10.55
2023-12-17T20:21:13.689Z,9.50
2023-12-17T20:23:40.210Z,10.25
2023-12-17T20:26:06.588Z,10.70
2023-12-17T20:28:32.941Z,9.55
2023-12-17T20:30:59.437Z,12.35
2023-12-17T20:33:26.153Z,9.52
2023-12-17T20:35:52.493Z,11.55
2023-12-17T20:38:18.931Z,10.90
2023-12-17T20:40:45.953Z,10.70
2023-12-17T20:43:12.418Z,10.70
2023-12-17T20:45:40.474Z,9.73
2023-12-17T20:48:07.894Z,10.27
2023-12-17T20:50:36.043Z,9.52
2023-12-17T20:53:02.399Z,10.70
2023-12-17T20:55:28.895Z,9.80
2023-12-17T20:57:55.292Z,9.75
2023-12-17T21:00:21.783Z,9.82
2023-12-17T21:02:48.219Z,10.43
2023-12-17T21:05:15.371Z,10.15
2023-12-17T21:07:41.969Z,9.85
2023-12-17T21:10:08.717Z,10.20
2023-12-17T21:12:35.279Z,10.35
2023-12-17T21:15:01.782Z,10.07
2023-12-17T21:17:28.139Z,10.65
2023-12-17T21:19:54.487Z,10.23
2023-12-17T21:22:20.905Z,9.75
2023-12-17T21:24:47.314Z,10.70
2023-12-17T21:27:20.587Z,11.52
2023-12-17T21:29:47.295Z,12.18
2023-12-17T21:32:13.682Z,10.90
2023-12-17T21:34:40.211Z,10.60
2023-12-17T21:37:07.657Z,10.40
2023-12-17T21:39:34.150Z,10.30
2023-12-17T21:42:00.637Z,10.52
2023-12-17T21:44:27.405Z,11.07
2023-12-17T21:46:53.830Z,10.35
2023-12-17T21:49:20.231Z,10.55
2023-12-17T21:51:46.606Z,10.43
2023-12-17T21:54:13.004Z,11.25
2023-12-17T21:56:39.392Z,10.32
2023-12-17T21:59:05.975Z,10.68
2023-12-17T22:01:32.514Z,10.25
2023-12-17T22:03:59.095Z,11.02
2023-12-17T22:06:25.578Z,10.93
2023-12-17T22:08:57.778Z,10.80
2023-12-17T22:11:27.334Z,10.45
2023-12-17T22:13:53.827Z,10.40
2023-12-17T22:16:20.151Z,10.82
2023-12-17T22:18:46.646Z,10.43
2023-12-17T22:21:22.573Z,10.27
2023-12-17T22:23:49.004Z,10.07
2023-12-17T22:26:15.425Z,11.07
2023-12-17T22:28:41.825Z,11.82
2023-12-17T22:31:09.412Z,10.40
2023-12-17T22:33:36.002Z,10.88
2023-12-17T22:36:02.506Z,11.55
2023-12-17T22:38:29.000Z,10.55
2023-12-17T22:40:55.493Z,11.07
2023-12-17T22:43:21.890Z,10.65
2023-12-17T22:45:48.365Z,10.73
2023-12-17T22:48:14.832Z,10.57
2023-12-17T22:50:41.308Z,10.38
2023-12-17T22:53:07.752Z,10.82
2023-12-17T22:55:34.098Z,11.60
2023-12-17T22:58:01.496Z,10.77
2023-12-17T23:00:27.956Z,10.90
2023-12-17T23:02:54.439Z,10.88
2023-12-17T23:05:21.069Z,10.40
2023-12-17T23:07:47.596Z,10.38
2023-12-17T23:10:16.422Z,9.98
2023-12-17T23:12:43.984Z,11.10
2023-12-17T23:15:11.437Z,11.30
2023-12-17T23:17:38.188Z,10.40
2023-12-17T23:20:05.262Z,11.70
2023-12-17T23:22:31.631Z,10.77
2023-12-17T23:24:57.978Z,11.05
2023-12-17T23:27:24.400Z,10.55
2023-12-17T23:29:50.917Z,11.32
2023-12-17T23:32:24.774Z,10.30
2023-12-17T23:34:56.543Z,10.75
2023-12-17T23:37:22.993Z,10.43
2023-12-17T23:39:49.384Z,12.30
2023-12-17T23:42:15.869Z,11.32
2023-12-17T23:44:42.293Z,11.60
2023-12-17T23:47:08.672Z,11.45
2023-12-17T23:49:35.087Z,11.07
2023-12-17T23:52:01.460Z,11.73
2023-12-17T23:54:27.872Z,12.38
2023-12-17T23:56:54.281Z,11.77
2023-12-17T23:59:20.620Z,11.52
